createdAt,value
2022-08-23T00:01:48.581Z,3.88
2022-08-23T00:04:21.284Z,4.22
2022-08-23T00:06:51.723Z,5.28
2022-08-23T00:09:21.855Z,5.40
2022-08-23T00:11:52.719Z,4.07
2022-08-23T00:14:27.278Z,4.43
2022-08-23T00:16:56.907Z,2.72
2022-08-23T00:19:28.892Z,3.83
2022-08-23T00:21:58.118Z,4.47
2022-08-23T00:24:27.254Z,3.97
2022-08-23T00:27:00.092Z,2.38
2022-08-23T00:29:33.214Z,5.65
2022-08-23T00:32:02.405Z,2.90
2022-08-23T00:34:31.641Z,3.50
2022-08-23T00:37:00.006Z,3.92
2022-08-23T00:39:29.214Z,8.70
2022-08-23T00:44:51.591Z,6.85
2022-08-23T00:47:40.921Z,3.67
2022-08-23T00:50:24.183Z,2.33
2022-08-23T00:53:03.099Z,4.32
2022-08-23T00:55:32.482Z,4.47
2022-08-23T00:58:01.684Z,5.45
2022-08-23T01:00:33.916Z,3.58
2022-08-23T01:03:05.239Z,3.58
2022-08-23T01:05:48.729Z,2.78
2022-08-23T01:08:17.792Z,4.72
2022-08-23T01:10:51.157Z,2.78
2022-08-23T01:13:25.826Z,2.70
2022-08-23T01:15:59.118Z,3.63
2022-08-23T01:18:31.036Z,5.00
2022-08-23T01:21:05.853Z,3.20
2022-08-23T01:23:44.486Z,3.45
2022-08-23T01:26:15.818Z,2.30
2022-08-23T01:28:51.313Z,2.80
2022-08-23T01:31:21.184Z,2.85
2022-08-23T01:33:55.392Z,2.13
2022-08-23T01:36:24.449Z,3.30
2022-08-23T01:38:54.117Z,8.07
2022-08-23T01:41:23.726Z,4.25
2022-08-23T01:43:52.609Z,6.00
2022-08-23T01:46:22.949Z,4.00
2022-08-23T01:48:53.239Z,1.67
2022-08-23T01:51:22.827Z,3.08
2022-08-23T01:53:51.711Z,5.80
2022-08-23T01:56:28.089Z,2.75
2022-08-23T01:59:09.106Z,4.60
2022-08-23T02:01:38.294Z,5.88
2022-08-23T02:04:07.603Z,6.80
2022-08-23T02:06:36.015Z,4.97
2022-08-23T02:09:05.943Z,4.10
2022-08-23T02:11:48.671Z,4.38
2022-08-23T02:14:19.619Z,5.63
2022-08-23T02:16:59.956Z,6.88
2022-08-23T02:19:33.287Z,5.57
2022-08-23T02:22:01.870Z,5.07
2022-08-23T02:24:31.666Z,6.28
2022-08-23T02:27:04.963Z,4.90
2022-08-23T02:29:39.177Z,4.78
2022-08-23T02:32:09.660Z,4.30
2022-08-23T02:34:38.919Z,4.68
2022-08-23T02:37:08.158Z,4.97
2022-08-23T02:39:38.695Z,5.05
2022-08-23T02:42:11.523Z,9.00
2022-08-23T02:44:40.515Z,3.35
2022-08-23T02:47:09.326Z,9.32
2022-08-23T02:49:37.929Z,6.68
2022-08-23T02:52:07.604Z,6.35
2022-08-23T02:54:37.333Z,6.70
2022-08-23T02:57:06.512Z,6.30
2022-08-23T02:59:36.508Z,5.53
2022-08-23T03:02:05.267Z,5.03
2022-08-23T03:04:33.582Z,6.43
2022-08-23T03:07:01.871Z,6.13
2022-08-23T03:09:30.380Z,4.50
2022-08-23T03:12:14.712Z,6.78
2022-08-23T03:14:44.779Z,9.35
2022-08-23T03:17:14.356Z,7.35
2022-08-23T03:19:43.994Z,7.85
2022-08-23T03:22:12.427Z,8.43
2022-08-23T03:24:40.660Z,5.28
2022-08-23T03:27:08.888Z,6.03
2022-08-23T03:29:41.350Z,8.27
2022-08-23T03:32:11.948Z,12.40
2022-08-23T03:34:43.941Z,4.55
2022-08-23T03:37:14.221Z,9.52
2022-08-23T03:39:42.662Z,5.13
2022-08-23T03:42:12.168Z,6.93
2022-08-23T03:44:40.774Z,5.68
2022-08-23T03:47:10.929Z,8.60
2022-08-23T03:49:40.256Z,6.28
2022-08-23T03:52:11.497Z,4.45
2022-08-23T03:54:40.213Z,4.63
2022-08-23T03:57:10.638Z,6.60
2022-08-23T03:59:41.599Z,7.80
2022-08-23T04:02:12.246Z,5.70
2022-08-23T04:04:40.512Z,7.18
2022-08-23T04:07:08.679Z,9.23
2022-08-23T04:09:37.166Z,7.07
2022-08-23T04:12:11.943Z,6.82
2022-08-23T04:14:46.925Z,7.70
2022-08-23T04:17:17.887Z,7.43
2022-08-23T04:19:46.659Z,6.90
2022-08-23T04:22:17.506Z,6.72
2022-08-23T04:24:47.346Z,9.07
2022-08-23T04:27:16.108Z,11.30
2022-08-23T04:29:44.623Z,11.10
2022-08-23T04:32:14.811Z,13.98
2022-08-23T04:34:57.778Z,9.45
2022-08-23T04:37:25.992Z,8.70
2022-08-23T04:40:11.900Z,11.85
2022-08-23T04:42:40.825Z,12.70
2022-08-23T04:45:11.702Z,10.40
2022-08-23T04:47:41.549Z,12.68
2022-08-23T04:50:12.187Z,9.95
2022-08-23T04:52:40.891Z,11.88
2022-08-23T04:55:09.693Z,13.43
2022-08-23T04:57:38.455Z,15.45
2022-08-23T05:00:08.182Z,7.70
2022-08-23T05:02:36.834Z,9.27
2022-08-23T05:05:06.027Z,10.52
2022-08-23T05:07:42.505Z,12.40
2022-08-23T05:10:15.102Z,12.38
2022-08-23T05:12:43.850Z,6.85
2022-08-23T05:15:13.241Z,7.03
2022-08-23T05:17:41.770Z,8.98
2022-08-23T05:20:11.812Z,9.77
2022-08-23T05:22:42.836Z,6.40
2022-08-23T05:25:11.539Z,6.28
2022-08-23T05:27:40.286Z,7.33
2022-08-23T05:30:12.654Z,6.78
2022-08-23T05:32:44.075Z,9.82
2022-08-23T05:35:12.913Z,9.75
2022-08-23T05:37:42.474Z,11.90
2022-08-23T05:40:12.015Z,7.35
2022-08-23T05:42:40.401Z,4.40
2022-08-23T05:45:09.769Z,8.02
2022-08-23T05:47:38.243Z,6.85
2022-08-23T05:50:07.570Z,8.40
2022-08-23T05:52:35.911Z,6.28
2022-08-23T05:55:08.356Z,7.13
2022-08-23T05:57:38.874Z,11.00
2022-08-23T06:00:11.769Z,9.15
2022-08-23T06:02:40.882Z,11.43
2022-08-23T06:05:10.277Z,11.13
2022-08-23T06:07:39.033Z,11.45
2022-08-23T06:10:16.302Z,8.38
2022-08-23T06:12:45.023Z,8.18
2022-08-23T06:15:13.236Z,11.27
2022-08-23T06:17:41.467Z,10.55
2022-08-23T06:20:11.526Z,7.75
2022-08-23T06:22:39.786Z,15.32
2022-08-23T06:25:10.412Z,8.48
2022-08-23T06:27:38.871Z,7.43
2022-08-23T06:30:08.376Z,10.48
2022-08-23T06:32:42.108Z,6.25
2022-08-23T06:35:38.067Z,10.13
2022-08-23T06:38:03.443Z,8.25
2022-08-23T06:40:33.292Z,8.75
2022-08-23T06:43:03.411Z,4.70
2022-08-23T06:45:34.979Z,9.60
2022-08-23T06:48:04.276Z,8.02
2022-08-23T06:50:35.717Z,9.18
2022-08-23T06:55:53.157Z,9.20
2022-08-23T06:58:22.454Z,6.03
2022-08-23T07:00:57.457Z,7.20
2022-08-23T07:03:47.557Z,6.95
2022-08-23T07:06:26.425Z,7.97
2022-08-23T07:08:55.738Z,5.38
2022-08-23T07:11:31.819Z,6.78
2022-08-23T07:14:02.002Z,4.95
2022-08-23T07:16:35.051Z,7.63
2022-08-23T07:19:03.966Z,8.25
2022-08-23T07:21:33.581Z,5.70
2022-08-23T07:24:02.077Z,5.13
2022-08-23T07:26:36.031Z,9.77
2022-08-23T07:29:05.777Z,7.40
2022-08-23T07:31:40.700Z,6.35
2022-08-23T07:34:10.497Z,9.40
2022-08-23T07:36:42.202Z,5.65
2022-08-23T07:39:11.873Z,9.75
2022-08-23T07:41:42.533Z,6.15
2022-08-23T07:44:13.497Z,7.45
2022-08-23T07:46:57.583Z,7.20
2022-08-23T07:52:00.017Z,6.72
2022-08-23T07:54:29.315Z,7.05
2022-08-23T07:56:59.223Z,10.82
2022-08-23T07:59:31.436Z,6.53
2022-08-23T08:02:02.969Z,13.15
2022-08-23T08:04:32.136Z,7.50
2022-08-23T08:07:18.282Z,8.43
2022-08-23T08:09:48.529Z,9.88
2022-08-23T08:12:18.568Z,11.23
2022-08-23T08:14:48.578Z,5.95
2022-08-23T08:17:18.546Z,9.23
2022-08-23T08:19:47.220Z,9.07
2022-08-23T08:22:15.509Z,8.63
2022-08-23T08:24:44.172Z,10.30
2022-08-23T08:27:12.465Z,8.37
2022-08-23T08:29:44.022Z,16.47
2022-08-23T08:32:13.869Z,13.98
2022-08-23T08:34:43.443Z,8.75
2022-08-23T08:37:12.060Z,12.40
2022-08-23T08:39:45.827Z,9.68
2022-08-23T08:42:39.555Z,14.15
2022-08-23T08:45:13.381Z,10.43
2022-08-23T08:47:46.457Z,12.05
2022-08-23T08:50:24.189Z,15.32
2022-08-23T08:52:56.360Z,9.68
2022-08-23T08:55:29.013Z,13.07
2022-08-23T08:57:58.486Z,12.63
2022-08-23T09:00:32.534Z,12.82
2022-08-23T09:03:05.579Z,10.70
2022-08-23T09:05:39.677Z,13.77
2022-08-23T09:08:24.534Z,8.48
2022-08-23T09:11:03.952Z,12.93
2022-08-23T09:16:31.772Z,9.45
2022-08-23T09:19:02.788Z,12.55
2022-08-23T09:21:39.988Z,12.45
2022-08-23T09:24:08.753Z,11.23
2022-08-23T09:29:15.794Z,11.50
2022-08-23T09:31:48.516Z,10.50
2022-08-23T09:34:21.163Z,10.57
2022-08-23T09:36:52.303Z,14.52
2022-08-23T09:39:30.635Z,13.68
2022-08-23T09:42:01.087Z,13.10
2022-08-23T09:44:37.718Z,12.57
2022-08-23T09:47:13.475Z,8.90
2022-08-23T09:49:42.857Z,9.98
2022-08-23T09:52:22.039Z,13.30
2022-08-23T09:55:00.931Z,15.90
2022-08-23T09:57:32.297Z,12.13
2022-08-23T10:00:03.421Z,11.13
2022-08-23T10:02:35.613Z,19.20
2022-08-23T10:05:07.889Z,16.83
2022-08-23T10:07:43.100Z,12.20
2022-08-23T10:10:18.753Z,10.23
2022-08-23T10:12:47.888Z,14.23
2022-08-23T10:15:18.387Z,14.35
2022-08-23T10:17:54.047Z,12.45
2022-08-23T10:20:33.487Z,18.13
2022-08-23T10:23:10.731Z,17.27
2022-08-23T10:25:43.825Z,16.27
2022-08-23T10:28:39.354Z,13.30
2022-08-23T10:31:23.244Z,11.10
2022-08-23T10:34:03.904Z,18.15
2022-08-23T10:36:39.624Z,19.20
2022-08-23T10:39:17.430Z,11.80
2022-08-23T10:42:00.078Z,15.15
2022-08-23T10:44:36.474Z,14.55
2022-08-23T10:47:19.817Z,17.27
2022-08-23T10:49:52.629Z,10.57
2022-08-23T10:52:25.002Z,9.70
2022-08-23T10:55:08.607Z,11.50
2022-08-23T10:57:41.794Z,12.30
2022-08-23T11:00:17.819Z,18.15
2022-08-23T11:02:51.396Z,14.50
2022-08-23T11:05:27.175Z,11.85
2022-08-23T11:08:02.946Z,11.25
2022-08-23T11:10:56.006Z,14.00
2022-08-23T11:13:29.375Z,9.10
2022-08-23T11:16:01.480Z,12.93
2022-08-23T11:18:45.987Z,13.85
2022-08-23T11:21:50.374Z,14.77
2022-08-23T11:24:51.367Z,15.48
2022-08-23T11:27:35.742Z,14.82
2022-08-23T11:30:45.184Z,14.80
2022-08-23T11:33:24.388Z,11.85
2022-08-23T11:35:55.165Z,11.55
2022-08-23T11:39:03.977Z,17.88
2022-08-23T11:41:34.149Z,18.15
2022-08-23T11:44:26.951Z,16.60
2022-08-23T11:47:03.734Z,14.20
2022-08-23T11:50:02.682Z,13.35
2022-08-23T11:53:02.343Z,14.98
2022-08-23T11:56:04.205Z,14.75
2022-08-23T11:58:54.518Z,14.70
2022-08-23T12:01:33.177Z,10.52
2022-08-23T12:04:10.510Z,12.45
2022-08-23T12:06:50.534Z,12.10
2022-08-23T12:09:52.631Z,11.35
2022-08-23T12:12:40.148Z,13.20
2022-08-23T12:15:13.719Z,10.55
2022-08-23T12:18:19.276Z,13.65
2022-08-23T12:20:51.497Z,12.25
2022-08-23T12:23:22.731Z,16.73
2022-08-23T12:26:05.761Z,9.82
2022-08-23T12:28:43.937Z,13.93
2022-08-23T12:31:21.286Z,11.80
2022-08-23T12:34:02.679Z,21.00
2022-08-23T12:36:40.148Z,14.32
2022-08-23T12:39:11.858Z,12.85
2022-08-23T12:41:54.160Z,15.13
2022-08-23T12:44:27.069Z,16.73
2022-08-23T12:46:55.616Z,11.90
2022-08-23T12:49:30.175Z,14.85
2022-08-23T12:52:02.012Z,16.15
2022-08-23T12:54:38.189Z,14.75
2022-08-23T12:57:11.716Z,16.45
2022-08-23T13:00:01.937Z,13.90
2022-08-23T13:02:50.824Z,11.00
2022-08-23T13:05:28.041Z,15.88
2022-08-23T13:07:56.449Z,11.27
2022-08-23T13:10:26.586Z,14.85
2022-08-23T13:12:55.277Z,14.40
2022-08-23T13:15:47.305Z,12.85
2022-08-23T13:18:42.786Z,13.52
2022-08-23T13:21:29.086Z,16.55
2022-08-23T13:24:03.436Z,25.83
2022-08-23T13:26:39.130Z,20.95
2022-08-23T13:29:11.631Z,15.82
2022-08-23T13:31:52.449Z,18.33
2022-08-23T13:34:39.804Z,18.48
2022-08-23T13:37:22.838Z,18.60
2022-08-23T13:39:54.384Z,15.02
2022-08-23T13:42:35.376Z,15.40
2022-08-23T13:45:14.077Z,10.90
2022-08-23T13:47:49.656Z,16.27
2022-08-23T13:50:25.124Z,16.55
2022-08-23T13:55:45.695Z,19.63
2022-08-23T13:58:18.476Z,20.23
2022-08-23T14:00:55.366Z,15.10
2022-08-23T14:03:26.293Z,17.27
2022-08-23T14:05:55.111Z,16.75
2022-08-23T14:08:23.772Z,14.80
2022-08-23T14:10:53.447Z,18.65
2022-08-23T14:13:25.989Z,18.00
2022-08-23T14:15:56.647Z,15.35
2022-08-23T14:18:28.698Z,17.65
2022-08-23T14:20:57.584Z,15.02
2022-08-23T14:23:26.262Z,15.35
2022-08-23T14:25:58.541Z,16.00
2022-08-23T14:28:30.112Z,12.85
2022-08-23T14:30:59.132Z,13.13
2022-08-23T14:33:28.855Z,21.48
2022-08-23T14:35:57.403Z,21.15
2022-08-23T14:38:26.147Z,12.25
2022-08-23T14:40:59.138Z,17.70
2022-08-23T14:43:28.468Z,20.05
2022-08-23T14:45:57.598Z,25.13
2022-08-23T14:48:26.469Z,19.13
2022-08-23T14:50:56.999Z,16.55
2022-08-23T14:53:29.760Z,17.20
2022-08-23T14:56:20.546Z,19.20
2022-08-23T14:58:46.467Z,15.75
2022-08-23T15:01:15.669Z,13.50
2022-08-23T15:06:15.086Z,12.63
2022-08-23T15:08:44.500Z,16.40
2022-08-23T15:14:04.488Z,15.30
2022-08-23T15:16:33.469Z,20.23
2022-08-23T15:21:31.774Z,16.15
2022-08-23T15:24:00.021Z,22.13
2022-08-23T15:26:31.393Z,13.30
2022-08-23T15:29:01.751Z,14.68
2022-08-23T15:31:30.104Z,14.82
2022-08-23T15:33:58.595Z,22.42
2022-08-23T15:36:28.183Z,16.08
2022-08-23T15:38:59.579Z,20.77
2022-08-23T15:41:28.246Z,13.10
2022-08-23T15:43:56.642Z,14.63
2022-08-23T15:46:25.505Z,12.75
2022-08-23T15:48:57.911Z,12.32
2022-08-23T15:51:26.535Z,15.07
2022-08-23T15:53:57.602Z,19.33
2022-08-23T15:56:32.222Z,17.38
2022-08-23T15:59:01.197Z,18.73
2022-08-23T16:01:33.697Z,18.45
2022-08-23T16:04:02.420Z,13.23
2022-08-23T16:06:35.833Z,18.30
2022-08-23T16:09:06.692Z,15.10
2022-08-23T16:11:36.618Z,13.88
2022-08-23T16:14:05.420Z,21.98
2022-08-23T16:16:38.564Z,22.52
2022-08-23T16:19:08.901Z,16.38
2022-08-23T16:21:38.087Z,15.35
2022-08-23T16:24:08.009Z,15.98
2022-08-23T16:26:40.392Z,17.42
2022-08-23T16:29:13.431Z,13.35
2022-08-23T16:31:43.182Z,16.35
2022-08-23T16:34:14.895Z,15.57
2022-08-23T16:36:45.755Z,18.92
2022-08-23T16:39:15.545Z,15.40
2022-08-23T16:44:13.493Z,15.35
2022-08-23T16:46:44.331Z,15.30
2022-08-23T16:49:12.718Z,15.02
2022-08-23T16:51:41.085Z,15.90
2022-08-23T16:54:10.101Z,22.58
2022-08-23T16:59:13.017Z,15.20
2022-08-23T17:01:48.323Z,17.58
2022-08-23T17:04:17.185Z,16.52
2022-08-23T17:06:46.884Z,15.10
2022-08-23T17:09:18.800Z,22.27
2022-08-23T17:11:47.810Z,18.92
2022-08-23T17:14:17.639Z,18.50
2022-08-23T17:16:46.939Z,16.48
2022-08-23T17:19:15.917Z,14.45
2022-08-23T17:21:44.925Z,12.68
2022-08-23T17:24:13.230Z,12.63
2022-08-23T17:26:41.843Z,22.13
2022-08-23T17:29:10.468Z,21.53
2022-08-23T17:31:40.452Z,16.80
2022-08-23T17:34:09.089Z,17.85
2022-08-23T17:36:40.058Z,17.03
2022-08-23T17:39:11.150Z,15.13
2022-08-23T17:41:44.982Z,13.52
2022-08-23T17:44:14.526Z,18.08
2022-08-23T17:49:16.714Z,17.58
2022-08-23T17:51:45.467Z,19.42
2022-08-23T17:54:16.095Z,16.70
2022-08-23T17:56:50.046Z,23.98
2022-08-23T17:59:19.857Z,14.77
2022-08-23T18:01:49.686Z,19.50
2022-08-23T18:04:18.333Z,16.75
2022-08-23T18:06:46.964Z,14.15
2022-08-23T18:09:15.471Z,30.57
2022-08-23T18:11:43.745Z,21.88
2022-08-23T18:14:13.269Z,18.67
2022-08-23T18:16:44.097Z,24.90
2022-08-23T18:19:15.656Z,18.83
2022-08-23T18:21:45.486Z,25.95
2022-08-23T18:24:14.473Z,24.83
2022-08-23T18:27:05.719Z,25.00
2022-08-23T18:30:28.842Z,20.98
2022-08-23T18:33:46.742Z,22.38
2022-08-23T18:36:17.123Z,28.27
2022-08-23T18:38:45.633Z,20.60
2022-08-23T18:41:14.254Z,28.75
2022-08-23T18:43:43.249Z,20.75
2022-08-23T18:46:13.948Z,24.90
2022-08-23T18:48:42.869Z,19.50
2022-08-23T18:51:24.560Z,19.02
2022-08-23T18:53:53.097Z,20.45
2022-08-23T18:56:21.572Z,17.45
2022-08-23T18:58:49.820Z,21.02
2022-08-23T19:01:24.240Z,19.35
2022-08-23T19:03:54.051Z,24.55
2022-08-23T19:06:24.340Z,19.85
2022-08-23T19:08:54.394Z,25.15
2022-08-23T19:11:24.511Z,20.63
2022-08-23T19:13:53.242Z,18.65
2022-08-23T19:16:23.567Z,19.60
2022-08-23T19:18:52.685Z,16.42
2022-08-23T19:21:24.556Z,15.68
2022-08-23T19:23:57.747Z,19.23
2022-08-23T19:26:31.754Z,16.88
2022-08-23T19:29:01.023Z,19.77
2022-08-23T19:31:34.501Z,21.15
2022-08-23T19:34:06.150Z,17.27
2022-08-23T19:36:46.297Z,17.80
2022-08-23T19:39:16.903Z,23.02
2022-08-23T19:41:46.556Z,18.65
2022-08-23T19:44:17.654Z,19.55
2022-08-23T19:46:47.268Z,13.30
2022-08-23T19:49:16.653Z,19.20
2022-08-23T19:51:46.672Z,19.25
2022-08-23T19:54:15.374Z,18.95
2022-08-23T19:56:48.601Z,20.05
2022-08-23T19:59:20.622Z,22.20
2022-08-23T20:01:49.812Z,23.98
2022-08-23T20:04:19.724Z,22.73
2022-08-23T20:06:50.954Z,23.20
2022-08-23T20:09:21.385Z,19.38
2022-08-23T20:12:05.688Z,26.02
2022-08-23T20:14:34.682Z,19.45
2022-08-23T20:17:07.389Z,21.58
2022-08-23T20:19:36.678Z,19.23
2022-08-23T20:22:24.656Z,25.75
2022-08-23T20:24:53.945Z,26.10
2022-08-23T20:27:24.098Z,22.92
2022-08-23T20:30:00.565Z,17.40
2022-08-23T20:32:29.999Z,20.02
2022-08-23T20:35:00.843Z,19.88
2022-08-23T20:37:31.585Z,17.35
2022-08-23T20:40:00.903Z,26.48
2022-08-23T20:44:58.221Z,20.52
2022-08-23T20:47:26.875Z,27.05
2022-08-23T20:49:55.740Z,15.88
2022-08-23T20:52:24.158Z,19.83
2022-08-23T20:54:56.733Z,21.17
2022-08-23T20:57:25.658Z,23.27
2022-08-23T20:59:57.044Z,24.48
2022-08-23T21:02:28.759Z,26.33
2022-08-23T21:04:57.432Z,23.98
2022-08-23T21:07:26.063Z,25.60
2022-08-23T21:09:58.976Z,21.83
2022-08-23T21:12:27.261Z,21.02
2022-08-23T21:14:56.892Z,21.67
2022-08-23T21:17:29.326Z,19.30
2022-08-23T21:19:57.652Z,19.27
2022-08-23T21:22:31.956Z,28.23
2022-08-23T21:25:02.591Z,21.73
2022-08-23T21:27:31.352Z,21.10
2022-08-23T21:30:00.051Z,19.65
2022-08-23T21:32:29.370Z,17.15
2022-08-23T21:34:58.318Z,24.58
2022-08-23T21:37:27.224Z,22.13
2022-08-23T21:39:56.788Z,21.10
2022-08-23T21:42:27.146Z,24.33
2022-08-23T21:44:55.422Z,20.80
2022-08-23T21:47:24.490Z,18.27
2022-08-23T21:49:53.196Z,17.50
2022-08-23T21:52:23.595Z,25.40
2022-08-23T21:54:52.770Z,24.15
2022-08-23T21:57:21.204Z,24.08
2022-08-23T21:59:51.142Z,23.50
2022-08-23T22:02:20.038Z,19.60
2022-08-23T22:04:48.481Z,21.70
2022-08-23T22:07:17.192Z,23.00
2022-08-23T22:09:46.149Z,25.42
2022-08-23T22:12:14.754Z,20.98
2022-08-23T22:14:43.048Z,21.58
2022-08-23T22:17:14.602Z,21.55
2022-08-23T22:19:42.951Z,20.98
2022-08-23T22:22:11.510Z,25.50
2022-08-23T22:24:40.791Z,24.80
2022-08-23T22:27:09.649Z,24.23
2022-08-23T22:29:38.162Z,17.80
2022-08-23T22:32:07.477Z,20.90
2022-08-23T22:34:37.396Z,21.38
2022-08-23T22:37:06.527Z,17.58
2022-08-23T22:42:06.626Z,22.70
2022-08-23T22:44:39.160Z,30.75
2022-08-23T22:47:07.680Z,25.93
2022-08-23T22:49:37.406Z,26.50
2022-08-23T22:52:06.823Z,22.52
2022-08-23T22:54:35.276Z,26.92
2022-08-23T22:57:03.603Z,30.83
2022-08-23T22:59:32.994Z,24.67
2022-08-23T23:04:33.782Z,20.80
2022-08-23T23:07:04.113Z,30.90
2022-08-23T23:09:32.556Z,27.63
2022-08-23T23:12:01.250Z,23.52
2022-08-23T23:14:30.011Z,22.90
2022-08-23T23:16:58.530Z,20.37
2022-08-23T23:19:45.743Z,23.27
2022-08-23T23:22:16.546Z,30.33
2022-08-23T23:24:44.970Z,23.00
2022-08-23T23:27:13.264Z,31.50
2022-08-23T23:29:42.239Z,27.00
2022-08-23T23:32:10.610Z,30.50
2022-08-23T23:34:38.905Z,17.67
2022-08-23T23:37:07.530Z,20.23
2022-08-23T23:39:39.246Z,24.00
2022-08-23T23:42:09.365Z,22.08
2022-08-23T23:44:38.075Z,20.85
2022-08-23T23:47:06.312Z,22.07
2022-08-23T23:49:34.934Z,21.58
2022-08-23T23:52:05.242Z,22.73
2022-08-23T23:54:35.734Z,26.70
2022-08-23T23:57:06.849Z,22.63
2022-08-23T23:59:35.829Z,26.10
